createdAt,value
2018-07-13T00:00:57.624Z,3.30
2018-07-13T00:01:57.609Z,3.50
2018-07-13T00:02:57.596Z,3.40
2018-07-13T00:03:57.588Z,3.70
2018-07-13T00:04:57.581Z,3.60
2018-07-13T00:05:57.568Z,3.60
2018-07-13T00:06:57.590Z,3.80
2018-07-13T00:07:57.543Z,3.60
2018-07-13T00:08:57.533Z,3.90
2018-07-13T00:09:57.531Z,3.90
2018-07-13T00:10:57.510Z,3.60
2018-07-13T00:11:57.510Z,3.20
2018-07-13T00:12:57.497Z,3.30
2018-07-13T00:13:57.492Z,3.30
2018-07-13T00:14:57.482Z,3.70
2018-07-13T00:15:57.457Z,3.60
2018-07-13T00:16:57.455Z,3.80
2018-07-13T00:17:57.471Z,3.80
2018-07-13T00:18:57.427Z,3.50
2018-07-13T00:19:57.420Z,3.50
2018-07-13T00:20:57.403Z,3.40
2018-07-13T00:21:57.390Z,3.70
2018-07-13T00:22:57.386Z,3.70
2018-07-13T00:23:57.388Z,3.50
2018-07-13T00:24:57.371Z,3.80
2018-07-13T00:25:57.354Z,3.60
2018-07-13T00:26:57.359Z,3.50
2018-07-13T00:27:57.359Z,3.30
2018-07-13T00:28:57.349Z,3.50
2018-07-13T00:29:57.305Z,3.20
2018-07-13T00:30:57.296Z,3.50
2018-07-13T00:31:57.288Z,3.40
2018-07-13T00:32:57.277Z,3.60
2018-07-13T00:33:57.261Z,3.70
2018-07-13T00:34:57.254Z,3.60
2018-07-13T00:35:57.244Z,3.40
2018-07-13T00:36:57.235Z,3.90
2018-07-13T00:37:57.224Z,3.70
2018-07-13T00:38:57.209Z,3.50
2018-07-13T00:39:57.226Z,3.60
2018-07-13T00:40:57.183Z,3.70
2018-07-13T00:41:57.171Z,3.60
2018-07-13T00:42:57.163Z,3.30
2018-07-13T00:43:57.159Z,3.50
2018-07-13T00:44:57.151Z,3.50
2018-07-13T00:45:57.140Z,3.50
2018-07-13T00:46:57.125Z,3.40
2018-07-13T00:47:57.108Z,3.50
2018-07-13T00:48:57.108Z,3.40
2018-07-13T00:49:57.093Z,3.60
2018-07-13T00:50:57.080Z,3.30
2018-07-13T00:51:57.113Z,3.50
2018-07-13T00:52:57.052Z,3.30
2018-07-13T00:53:57.048Z,3.40
2018-07-13T00:54:57.038Z,3.40
2018-07-13T00:55:57.026Z,3.10
2018-07-13T00:56:57.017Z,3.20
2018-07-13T00:57:57.006Z,3.70
2018-07-13T00:58:56.992Z,3.60
2018-07-13T00:59:56.978Z,3.40
2018-07-13T01:00:56.997Z,3.40
2018-07-13T01:01:56.968Z,3.50
2018-07-13T01:02:56.958Z,3.70
2018-07-13T01:03:56.939Z,3.40
2018-07-13T01:04:56.935Z,3.40
2018-07-13T01:05:56.958Z,3.50
2018-07-13T01:06:56.912Z,3.40
2018-07-13T01:07:56.895Z,3.00
2018-07-13T01:08:56.887Z,3.50
2018-07-13T01:09:56.877Z,3.10
2018-07-13T01:10:56.863Z,3.40
2018-07-13T01:11:56.852Z,3.30
2018-07-13T01:12:56.875Z,3.40
2018-07-13T01:13:56.826Z,3.30
2018-07-13T01:15:03.629Z,3.30
2018-07-13T01:15:56.814Z,3.20
2018-07-13T01:16:56.826Z,3.40
2018-07-13T01:17:56.789Z,3.30
2018-07-13T01:18:56.776Z,3.40
2018-07-13T01:19:56.762Z,3.20
2018-07-13T01:20:56.749Z,3.70
2018-07-13T01:21:56.921Z,3.30
2018-07-13T01:22:56.739Z,3.20
2018-07-13T01:23:56.718Z,3.30
2018-07-13T01:24:56.726Z,3.10
2018-07-13T01:25:56.694Z,3.30
2018-07-13T01:26:56.684Z,3.50
2018-07-13T01:27:56.706Z,3.20
2018-07-13T01:28:56.667Z,3.20
2018-07-13T01:29:56.655Z,3.50
2018-07-13T01:30:56.643Z,3.10
2018-07-13T01:31:56.638Z,3.20
2018-07-13T01:32:56.634Z,3.00
2018-07-13T01:33:56.610Z,3.20
2018-07-13T01:34:56.596Z,3.40
2018-07-13T01:35:56.609Z,3.10
2018-07-13T01:36:56.580Z,3.30
2018-07-13T01:37:56.585Z,3.10
2018-07-13T01:38:56.555Z,3.20
2018-07-13T01:39:56.544Z,3.10
2018-07-13T01:40:56.537Z,3.30
2018-07-13T01:41:56.552Z,3.10
2018-07-13T01:42:56.518Z,3.30
2018-07-13T01:43:56.505Z,3.30
2018-07-13T01:44:56.487Z,3.40
2018-07-13T01:45:56.477Z,3.10
2018-07-13T01:46:56.467Z,3.40
2018-07-13T01:47:56.459Z,2.90
2018-07-13T01:48:56.506Z,3.30
2018-07-13T01:49:56.438Z,2.90
2018-07-13T01:50:56.426Z,3.00
2018-07-13T01:51:56.412Z,3.30
2018-07-13T01:52:56.401Z,3.40
2018-07-13T01:53:56.396Z,3.20
2018-07-13T01:54:56.384Z,3.40
2018-07-13T01:55:56.369Z,3.00
2018-07-13T01:56:56.357Z,3.30
2018-07-13T01:57:56.345Z,3.20
2018-07-13T01:58:56.353Z,3.30
2018-07-13T01:59:56.354Z,3.00
2018-07-13T02:00:56.331Z,3.30
2018-07-13T02:01:56.309Z,3.30
2018-07-13T02:02:56.296Z,3.30
2018-07-13T02:03:56.283Z,3.30
2018-07-13T02:04:56.270Z,3.20
2018-07-13T02:05:56.274Z,3.10
2018-07-13T02:06:56.251Z,3.10
2018-07-13T02:07:56.251Z,3.10
2018-07-13T02:08:56.234Z,3.40
2018-07-13T02:09:56.241Z,3.10
2018-07-13T02:10:56.211Z,3.10
2018-07-13T02:11:56.200Z,3.10
2018-07-13T02:12:56.191Z,3.20
2018-07-13T02:13:56.180Z,2.90
2018-07-13T02:14:56.166Z,3.10
2018-07-13T02:15:56.157Z,3.20
2018-07-13T02:16:56.152Z,2.90
2018-07-13T02:17:56.130Z,3.10
2018-07-13T02:18:56.123Z,3.20
2018-07-13T02:19:56.141Z,3.20
2018-07-13T02:20:56.107Z,3.10
2018-07-13T02:21:56.095Z,3.00
2018-07-13T02:22:56.084Z,3.30
2018-07-13T02:23:56.068Z,2.90
2018-07-13T02:24:56.054Z,3.50
2018-07-13T02:25:56.051Z,3.10
2018-07-13T02:26:56.038Z,3.00
2018-07-13T02:27:56.024Z,3.10
2018-07-13T02:28:56.011Z,3.10
2018-07-13T02:29:56.000Z,3.10
2018-07-13T02:30:55.994Z,2.90
2018-07-13T02:31:55.991Z,3.10
2018-07-13T02:32:55.976Z,2.80
2018-07-13T02:33:55.989Z,3.10
2018-07-13T02:34:56.020Z,3.00
2018-07-13T02:35:55.964Z,2.90
2018-07-13T02:36:55.941Z,3.00
2018-07-13T02:37:55.946Z,3.10
2018-07-13T02:38:55.934Z,2.90
2018-07-13T02:39:55.897Z,2.80
2018-07-13T02:40:55.890Z,3.00
2018-07-13T02:41:55.872Z,2.90
2018-07-13T02:42:55.872Z,3.00
2018-07-13T02:43:55.854Z,3.00
2018-07-13T02:44:55.851Z,3.20
2018-07-13T02:45:55.834Z,3.00
2018-07-13T02:46:55.824Z,2.80
2018-07-13T02:47:55.811Z,2.90
2018-07-13T02:48:55.797Z,3.20
2018-07-13T02:49:55.786Z,3.00
2018-07-13T02:50:55.803Z,2.90
2018-07-13T02:51:55.814Z,3.00
2018-07-13T02:52:55.761Z,2.90
2018-07-13T02:53:55.753Z,2.80
2018-07-13T02:54:55.759Z,3.10
2018-07-13T02:55:55.726Z,3.20
2018-07-13T02:56:55.711Z,2.90
2018-07-13T02:57:55.708Z,3.00
2018-07-13T02:58:55.694Z,3.10
2018-07-13T02:59:55.680Z,2.70
2018-07-13T03:00:55.718Z,2.80
2018-07-13T03:01:55.655Z,3.00
2018-07-13T03:02:55.648Z,2.90
2018-07-13T03:03:55.638Z,2.70
2018-07-13T03:04:55.625Z,3.00
2018-07-13T03:05:55.617Z,3.10
2018-07-13T03:06:55.604Z,2.70
2018-07-13T03:07:55.619Z,2.90
2018-07-13T03:08:55.585Z,2.60
2018-07-13T03:09:55.568Z,2.80
2018-07-13T03:10:55.559Z,2.90
2018-07-13T03:11:55.548Z,2.80
2018-07-13T03:12:55.540Z,2.90
2018-07-13T03:13:55.526Z,2.80
2018-07-13T03:14:55.512Z,3.00
2018-07-13T03:15:55.505Z,2.80
2018-07-13T03:16:55.496Z,3.00
2018-07-13T03:17:55.508Z,2.80
2018-07-13T03:18:55.501Z,2.90
2018-07-13T03:19:55.461Z,2.60
2018-07-13T03:20:55.446Z,2.90
2018-07-13T03:21:55.444Z,2.80
2018-07-13T03:22:55.430Z,2.90
2018-07-13T03:23:55.446Z,2.90
2018-07-13T03:24:55.406Z,2.70
2018-07-13T03:25:55.394Z,2.80
2018-07-13T03:26:55.386Z,2.80
2018-07-13T03:27:55.377Z,2.90
2018-07-13T03:28:55.369Z,2.60
2018-07-13T03:29:55.352Z,2.80
2018-07-13T03:30:55.344Z,3.00
2018-07-13T03:31:55.336Z,2.70
2018-07-13T03:32:55.328Z,2.50
2018-07-13T03:33:55.314Z,2.70
2018-07-13T03:34:55.304Z,2.90
2018-07-13T03:35:55.288Z,2.80
2018-07-13T03:36:55.274Z,2.70
2018-07-13T03:37:55.264Z,2.80
2018-07-13T03:38:55.255Z,3.00
2018-07-13T03:39:55.273Z,2.70
2018-07-13T03:40:55.238Z,2.80
2018-07-13T03:41:55.228Z,2.80
2018-07-13T03:42:55.215Z,2.70
2018-07-13T03:43:55.237Z,2.90
2018-07-13T03:44:55.189Z,2.60
2018-07-13T03:45:55.186Z,2.90
2018-07-13T03:46:55.170Z,2.60
2018-07-13T03:47:55.160Z,2.70
2018-07-13T03:48:55.314Z,2.70
2018-07-13T03:49:55.134Z,2.70
2018-07-13T03:50:55.126Z,2.90
2018-07-13T03:51:55.211Z,2.90
2018-07-13T03:52:55.107Z,2.60
2018-07-13T03:53:55.098Z,2.60
2018-07-13T03:54:55.084Z,2.80
2018-07-13T03:55:55.096Z,2.80
2018-07-13T03:56:55.059Z,2.40
2018-07-13T03:57:55.047Z,2.60
2018-07-13T03:58:55.040Z,2.70
2018-07-13T03:59:55.031Z,2.70
2018-07-13T04:00:55.087Z,2.60
2018-07-13T04:01:55.008Z,2.80
2018-07-13T04:02:54.994Z,2.50
2018-07-13T04:03:55.007Z,2.70
2018-07-13T04:04:54.977Z,3.00
2018-07-13T04:05:54.967Z,2.60
2018-07-13T04:06:54.961Z,2.80
2018-07-13T04:07:54.941Z,3.00
2018-07-13T04:08:54.933Z,2.70
2018-07-13T04:09:54.915Z,2.70
2018-07-13T04:10:54.910Z,2.60
2018-07-13T04:11:54.925Z,2.80
2018-07-13T04:12:54.889Z,2.70
2018-07-13T04:13:54.878Z,2.70
2018-07-13T04:14:54.865Z,2.50
2018-07-13T04:15:54.852Z,2.80
2018-07-13T04:16:54.914Z,2.70
2018-07-13T04:17:54.862Z,2.60
2018-07-13T04:18:54.819Z,2.70
2018-07-13T04:19:54.805Z,2.80
2018-07-13T04:20:54.794Z,2.70
2018-07-13T04:21:54.782Z,2.60
2018-07-13T04:22:54.776Z,2.70
2018-07-13T04:23:54.764Z,2.70
2018-07-13T04:24:54.756Z,2.90
2018-07-13T04:25:54.745Z,2.70
2018-07-13T04:26:54.753Z,3.00
2018-07-13T04:27:54.754Z,2.60
2018-07-13T04:28:54.710Z,2.60
2018-07-13T04:29:54.695Z,2.70
2018-07-13T04:30:54.687Z,2.60
2018-07-13T04:31:54.679Z,2.70
2018-07-13T04:32:54.671Z,2.80
2018-07-13T04:33:54.656Z,2.60
2018-07-13T04:34:54.644Z,2.50
2018-07-13T04:35:54.643Z,2.40
2018-07-13T04:36:54.661Z,2.70
2018-07-13T04:37:54.616Z,2.40
2018-07-13T04:38:54.648Z,2.60
2018-07-13T04:39:54.589Z,2.50
2018-07-13T04:40:54.583Z,2.60
2018-07-13T04:41:54.567Z,2.90
2018-07-13T04:42:54.557Z,2.60
2018-07-13T04:43:54.578Z,2.60
2018-07-13T04:44:54.540Z,2.80
2018-07-13T04:45:54.530Z,2.60
2018-07-13T04:46:54.516Z,2.50
2018-07-13T04:47:54.502Z,2.70
2018-07-13T04:48:54.489Z,2.80
2018-07-13T04:49:54.493Z,2.60
2018-07-13T04:50:54.470Z,2.50
2018-07-13T04:51:54.458Z,2.60
2018-07-13T04:52:54.448Z,2.70
2018-07-13T04:53:54.433Z,2.60
2018-07-13T04:54:54.426Z,2.30
2018-07-13T04:55:54.471Z,2.60
2018-07-13T04:56:54.407Z,2.40
2018-07-13T04:57:54.396Z,2.80
2018-07-13T04:58:54.384Z,2.60
2018-07-13T04:59:54.413Z,2.70
2018-07-13T05:00:54.356Z,2.50
2018-07-13T05:01:54.370Z,2.50
2018-07-13T05:02:54.339Z,2.80
2018-07-13T05:03:54.330Z,2.50
2018-07-13T05:04:54.319Z,2.60
2018-07-13T05:05:54.306Z,2.60
2018-07-13T05:06:54.295Z,2.50
2018-07-13T05:07:54.286Z,2.70
2018-07-13T05:08:54.333Z,2.50
2018-07-13T05:09:54.265Z,2.30
2018-07-13T05:10:54.254Z,2.70
2018-07-13T05:11:54.239Z,2.70
2018-07-13T05:12:54.238Z,2.60
2018-07-13T05:13:54.215Z,2.30
2018-07-13T05:14:54.206Z,2.40
2018-07-13T05:15:54.225Z,2.30
2018-07-13T05:16:54.190Z,2.40
2018-07-13T05:17:54.181Z,2.70
2018-07-13T05:18:54.167Z,2.50
2018-07-13T05:19:54.152Z,2.50
2018-07-13T05:20:54.139Z,2.60
2018-07-13T05:21:54.137Z,2.30
2018-07-13T05:22:54.121Z,2.50
2018-07-13T05:23:54.138Z,2.30
2018-07-13T05:24:54.102Z,2.30
2018-07-13T05:25:54.083Z,2.60
2018-07-13T05:26:54.077Z,2.70
2018-07-13T05:27:54.066Z,2.60
2018-07-13T05:28:54.057Z,2.80
2018-07-13T05:29:54.047Z,2.40
2018-07-13T05:30:54.099Z,2.70
2018-07-13T05:31:54.049Z,2.50
2018-07-13T05:32:54.008Z,2.30
2018-07-13T05:33:54.001Z,2.30
2018-07-13T05:34:53.989Z,2.50
2018-07-13T05:35:53.989Z,2.40
2018-07-13T05:36:53.971Z,2.70
2018-07-13T05:37:53.956Z,2.60
2018-07-13T05:38:53.946Z,2.50
2018-07-13T05:39:53.939Z,2.60
2018-07-13T05:40:53.927Z,2.60
2018-07-13T05:41:53.916Z,2.60
2018-07-13T05:42:53.908Z,2.80
2018-07-13T05:43:53.892Z,2.30
2018-07-13T05:44:53.879Z,2.30
2018-07-13T05:45:53.868Z,2.60
2018-07-13T05:46:53.861Z,2.30
2018-07-13T05:47:53.880Z,2.60
2018-07-13T05:48:53.842Z,2.40
2018-07-13T05:49:53.833Z,2.40
2018-07-13T05:50:53.819Z,2.60
2018-07-13T05:51:53.805Z,2.40
2018-07-13T05:52:53.793Z,2.60
2018-07-13T05:53:53.790Z,2.40
2018-07-13T05:54:53.776Z,2.30
2018-07-13T05:55:53.763Z,2.30
2018-07-13T05:56:53.760Z,2.50
2018-07-13T05:57:53.739Z,2.40
2018-07-13T05:58:53.734Z,2.40
2018-07-13T05:59:53.721Z,2.50
2018-07-13T06:00:53.713Z,2.40
2018-07-13T06:01:53.704Z,2.60
2018-07-13T06:02:53.690Z,2.60
2018-07-13T06:03:53.706Z,2.60
2018-07-13T06:04:53.664Z,2.30
2018-07-13T06:05:53.652Z,2.30
2018-07-13T06:06:53.648Z,2.60
2018-07-13T06:07:53.636Z,2.60
2018-07-13T06:08:53.631Z,2.60
2018-07-13T06:09:53.619Z,2.30
2018-07-13T06:10:53.601Z,2.40
2018-07-13T06:11:53.594Z,2.60
2018-07-13T06:12:53.586Z,2.40
2018-07-13T06:13:53.579Z,2.50
2018-07-13T06:14:53.601Z,2.60
2018-07-13T06:15:53.549Z,2.50
2018-07-13T06:16:53.536Z,2.20
2018-07-13T06:17:53.524Z,2.40
2018-07-13T06:18:53.515Z,2.70
2018-07-13T06:19:53.537Z,2.60
2018-07-13T06:20:53.498Z,2.40
2018-07-13T06:21:53.487Z,2.50
2018-07-13T06:22:53.475Z,2.50
2018-07-13T06:23:53.464Z,2.40
2018-07-13T06:24:53.449Z,2.20
2018-07-13T06:25:53.449Z,2.50
2018-07-13T06:26:53.432Z,2.50
2018-07-13T06:27:53.422Z,2.40
2018-07-13T06:28:53.406Z,2.50
2018-07-13T06:29:53.398Z,2.40
2018-07-13T06:30:53.388Z,2.50
2018-07-13T06:31:53.380Z,2.30
2018-07-13T06:32:53.370Z,2.20
2018-07-13T06:33:53.361Z,2.50
2018-07-13T06:34:53.345Z,2.70
2018-07-13T06:35:53.357Z,2.60
2018-07-13T06:36:53.319Z,2.60
2018-07-13T06:37:53.307Z,2.60
2018-07-13T06:38:53.299Z,2.40
2018-07-13T06:39:53.291Z,2.50
2018-07-13T06:40:53.284Z,2.60
2018-07-13T06:41:53.266Z,2.50
2018-07-13T06:42:53.259Z,2.50
2018-07-13T06:43:53.246Z,3.90
2018-07-13T06:44:53.290Z,3.70
2018-07-13T06:45:53.227Z,4.60
2018-07-13T06:46:53.215Z,3.00
2018-07-13T06:47:53.206Z,4.50
2018-07-13T06:48:53.186Z,7.60
2018-07-13T06:49:53.175Z,5.80
2018-07-13T06:50:53.308Z,4.80
2018-07-13T06:51:53.160Z,5.50
2018-07-13T06:52:53.149Z,3.50
2018-07-13T06:53:53.139Z,4.60
2018-07-13T06:54:53.125Z,4.20
2018-07-13T06:55:53.112Z,3.60
2018-07-13T06:56:53.291Z,4.00
2018-07-13T06:57:53.095Z,3.40
2018-07-13T06:58:53.082Z,4.40
2018-07-13T06:59:53.068Z,3.20
2018-07-13T07:00:53.057Z,2.50
2018-07-13T07:01:53.048Z,3.90
2018-07-13T07:02:53.049Z,3.40
2018-07-13T07:03:53.030Z,3.30
2018-07-13T07:04:53.019Z,2.80
2018-07-13T07:05:53.009Z,3.10
2018-07-13T07:06:52.996Z,4.40
2018-07-13T07:07:52.984Z,3.10
2018-07-13T07:08:53.002Z,3.60
2018-07-13T07:09:52.959Z,3.50
2018-07-13T07:10:52.950Z,3.10
2018-07-13T07:11:52.955Z,3.90
2018-07-13T07:12:52.962Z,2.60
2018-07-13T07:13:52.917Z,2.80
2018-07-13T07:14:52.907Z,4.20
2018-07-13T07:15:52.899Z,3.60
2018-07-13T07:16:52.889Z,3.10
2018-07-13T07:17:52.989Z,3.00
2018-07-13T07:18:52.867Z,3.00
2018-07-13T07:19:52.850Z,3.30
2018-07-13T07:20:52.839Z,3.20
2018-07-13T07:21:52.826Z,3.60
2018-07-13T07:22:52.817Z,2.80
2018-07-13T07:23:52.812Z,3.80
2018-07-13T07:24:52.799Z,4.50
2018-07-13T07:25:52.789Z,3.50
2018-07-13T07:26:52.775Z,2.70
2018-07-13T07:27:52.761Z,3.80
2018-07-13T07:28:52.753Z,2.80
2018-07-13T07:29:52.746Z,2.90
2018-07-13T07:30:52.732Z,4.00
2018-07-13T07:31:52.718Z,3.40
2018-07-13T07:32:52.705Z,4.20
2018-07-13T07:33:52.696Z,3.30
2018-07-13T07:34:52.686Z,3.10
2018-07-13T07:35:52.676Z,3.10
2018-07-13T07:36:52.676Z,2.80
2018-07-13T07:37:52.658Z,2.70
2018-07-13T07:38:52.648Z,2.90
2018-07-13T07:39:52.630Z,3.60
2018-07-13T07:40:52.640Z,3.60
2018-07-13T07:41:52.610Z,2.60
2018-07-13T07:42:52.597Z,2.60
2018-07-13T07:43:52.638Z,3.60
2018-07-13T07:44:52.581Z,3.70
2018-07-13T07:45:52.570Z,2.80
2018-07-13T07:46:52.554Z,3.60
2018-07-13T07:47:52.554Z,3.50
2018-07-13T07:48:52.537Z,2.60
2018-07-13T07:49:52.531Z,4.70
2018-07-13T07:50:52.523Z,4.10
2018-07-13T07:51:52.504Z,3.70
2018-07-13T07:52:52.491Z,2.90
2018-07-13T07:53:52.482Z,3.50
2018-07-13T07:54:52.477Z,3.60
2018-07-13T07:55:52.464Z,3.10
2018-07-13T07:56:52.451Z,3.50
2018-07-13T07:57:52.439Z,3.10
